Time;durP1;ratioP1;P1;durP2;ratioP2;P2;SDS_P1;SDS_P2;PMS_P1;PMS_P2;Temp;Humidity;BMP_temperature;BMP_pressure;BME280_temperature;BME280_humidity;BME280_pressure;Samples;Min_cycle;Max_cycle;Signal;HPM_P1;HPM_P2
2022/08/09 00:00:36;;;;;;;;;;;;;;;;;;5044294;28;19964;-54
2022/08/09 00:03:01;;;;;;;;;;;;;;;;;;5049340;28;19932;-57
2022/08/09 00:05:26;;;;;;;;;;;;;;;;;;5050201;28;20344;-56
2022/08/09 00:07:51;;;;;;;;;;;;;;;;;;5036741;28;19920;-54
2022/08/09 00:10:17;;;;;;;;;;;;;;;;;;5041596;28;20412;-56
2022/08/09 00:12:42;;;;;;;;;;;;;;;;;;5051163;28;19921;-56
2022/08/09 00:15:07;;;;;;;;;;;;;;;;;;5051227;28;19917;-56
2022/08/09 00:17:32;;;;;;;;;;;;;;;;;;5052254;28;19996;-57
2022/08/09 00:19:57;;;;;;;;;;;;;;;;;;5051879;28;19927;-54
2022/08/09 00:22:23;;;;;;;;;;;;;;;;;;5052017;28;19940;-57
2022/08/09 00:24:48;;;;;;;;;;;;;;;;;;5052445;28;19924;-57
2022/08/09 00:27:13;;;;;;;;;;;;;;;;;;5053401;28;19920;-57
2022/08/09 00:29:38;;;;;;;;;;;;;;;;;;5038112;28;19920;-56
2022/08/09 00:32:04;;;;;;;;;;;;;;;;;;5051730;28;20254;-56
2022/08/09 00:34:29;;;;;;;;;;;;;;;;;;5043208;28;20480;-57
2022/08/09 00:36:54;;;;;;;;;;;;;;;;;;5052734;28;20000;-53
2022/08/09 00:39:21;;;;;;;;;;;;;;;;;;5053652;28;19924;-56
2022/08/09 00:41:46;;;;;;;;;;;;;;;;;;5052689;28;19971;-57
2022/08/09 00:44:11;;;;;;;;;;;;;;;;;;5052372;28;19920;-57
2022/08/09 00:46:36;;;;;;;;;;;;;;;;;;5053534;28;19926;-57
2022/08/09 00:49:02;;;;;;;;;;;;;;;;;;5052677;28;20328;-57
2022/08/09 00:51:27;;;;;;;;;;;;;;;;;;5051262;28;20152;-57
2022/08/09 00:53:52;;;;;;;;;;;;;;;;;;5042792;28;19917;-56
2022/08/09 00:56:17;;;;;;;;;;;;;;;;;;5037888;28;19923;-56
2022/08/09 00:58:43;;;;;;;;;;;;;;;;;;5041148;28;19917;-55
2022/08/09 01:01:08;;;;;;;;;;;;;;;;;;5050156;28;19921;-56
2022/08/09 01:03:33;;;;;;;;;;;;;;;;;;5050917;28;19932;-51
2022/08/09 01:05:58;;;;;;;;;;;;;;;;;;5052653;28;19917;-57
2022/08/09 01:08:24;;;;;;;;;;;;;;;;;;5050629;28;19924;-57
2022/08/09 01:10:49;;;;;;;;;;;;;;;;;;5051126;28;19927;-56
2022/08/09 01:13:14;;;;;;;;;;;;;;;;;;5051741;28;20380;-55
2022/08/09 01:15:39;;;;;;;;;;;;;;;;;;5050487;28;19923;-56
2022/08/09 01:18:04;;;;;;;;;;;;;;;;;;5053956;28;19917;-54
2022/08/09 01:20:29;;;;;;;;;;;;;;;;;;5053928;28;19913;-57
2022/08/09 01:22:55;;;;;;;;;;;;;;;;;;5052592;28;19971;-55
2022/08/09 01:25:20;;;;;;;;;;;;;;;;;;5052286;28;20287;-57
2022/08/09 01:27:45;;;;;;;;;;;;;;;;;;5048882;28;19924;-57
2022/08/09 01:30:10;;;;;;;;;;;;;;;;;;5051372;28;20044;-58
2022/08/09 01:32:35;;;;;;;;;;;;;;;;;;5051924;28;19921;-57
2022/08/09 01:35:01;;;;;;;;;;;;;;;;;;5053559;28;20007;-54
2022/08/09 01:37:26;;;;;;;;;;;;;;;;;;5050747;28;19963;-58
2022/08/09 01:39:51;;;;;;;;;;;;;;;;;;5051470;28;20021;-58
2022/08/09 01:42:17;;;;;;;;;;;;;;;;;;5050607;28;19916;-52
2022/08/09 01:44:42;;;;;;;;;;;;;;;;;;5053358;28;19920;-57
2022/08/09 01:47:07;;;;;;;;;;;;;;;;;;5032510;28;19923;-55
2022/08/09 01:49:32;;;;;;;;;;;;;;;;;;5049965;28;19920;-55
2022/08/09 01:51:58;;;;;;;;;;;;;;;;;;5052282;28;19921;-57
2022/08/09 01:54:23;;;;;;;;;;;;;;;;;;5050634;28;20691;-56
2022/08/09 01:56:48;;;;;;;;;;;;;;;;;;5052339;28;20875;-56
2022/08/09 01:59:13;;;;;;;;;;;;;;;;;;5052229;28;20034;-54
2022/08/09 02:01:38;;;;;;;;;;;;;;;;;;5051953;28;19971;-56
2022/08/09 02:04:04;;;;;;;;;;;;;;;;;;5050435;28;19994;-56
2022/08/09 02:09:13;;;;;;;;;;;;;;;;;;5051436;28;19928;-57
2022/08/09 02:11:38;;;;;;;;;;;;;;;;;;5053869;28;19928;-57
2022/08/09 02:14:03;;;;;;;;;;;;;;;;;;5056465;28;19970;-56
2022/08/09 02:16:32;;;;;;;;;;;;;;;;;;5056352;28;20288;-56
2022/08/09 02:18:57;;;;;;;;;;;;;;;;;;5045700;28;20813;-55
2022/08/09 02:21:22;;;;;;;;;;;;;;;;;;5053823;28;19927;-57
2022/08/09 02:23:47;;;;;;;;;;;;;;;;;;5055961;28;20043;-55
2022/08/09 02:26:13;;;;;;;;;;;;;;;;;;5053820;28;19920;-57
2022/08/09 02:28:38;;;;;;;;;;;;;;;;;;5041448;28;19916;-55
2022/08/09 02:31:03;;;;;;;;;;;;;;;;;;5056911;28;19928;-56
2022/08/09 02:33:28;;;;;;;;;;;;;;;;;;5056662;28;19920;-56
2022/08/09 02:35:54;;;;;;;;;;;;;;;;;;5058187;28;20007;-54
2022/08/09 02:38:19;;;;;;;;;;;;;;;;;;5053974;28;19923;-54
2022/08/09 02:40:44;;;;;;;;;;;;;;;;;;5055259;28;19965;-55
2022/08/09 02:43:09;;;;;;;;;;;;;;;;;;5042686;28;20402;-54
2022/08/09 02:45:34;;;;;;;;;;;;;;;;;;5055073;28;19916;-56
2022/08/09 02:48:00;;;;;;;;;;;;;;;;;;5053783;28;19924;-53
2022/08/09 02:50:25;;;;;;;;;;;;;;;;;;5054930;28;19942;-56
2022/08/09 02:52:50;;;;;;;;;;;;;;;;;;5036919;28;19924;-55
2022/08/09 02:55:15;;;;;;;;;;;;;;;;;;5053689;28;19916;-56
2022/08/09 02:57:40;;;;;;;;;;;;;;;;;;5055273;28;19917;-55
2022/08/09 03:00:08;;;;;;;;;;;;;;;;;;5053050;28;19958;-54
2022/08/09 03:02:33;;;;;;;;;;;;;;;;;;5055335;28;19943;-55
2022/08/09 03:04:58;;;;;;;;;;;;;;;;;;5055460;28;20279;-57
2022/08/09 03:07:24;;;;;;;;;;;;;;;;;;5055528;28;20246;-57
2022/08/09 03:09:49;;;;;;;;;;;;;;;;;;5053584;28;20288;-56
2022/08/09 03:12:14;;;;;;;;;;;;;;;;;;5038585;28;19980;-56
2022/08/09 03:14:39;;;;;;;;;;;;;;;;;;5053746;28;19924;-50
2022/08/09 03:17:05;;;;;;;;;;;;;;;;;;5039758;28;19923;-50
2022/08/09 03:19:30;;;;;;;;;;;;;;;;;;5053708;28;19917;-51
2022/08/09 03:21:55;;;;;;;;;;;;;;;;;;5053110;28;19956;-53
2022/08/09 03:24:20;;;;;;;;;;;;;;;;;;5052877;28;19927;-50
2022/08/09 03:26:45;;;;;;;;;;;;;;;;;;5053299;28;19943;-55
2022/08/09 03:29:10;;;;;;;;;;;;;;;;;;5055556;28;19912;-52
2022/08/09 03:31:36;;;;;;;;;;;;;;;;;;5043839;28;20373;-52
2022/08/09 03:34:02;;;;;;;;;;;;;;;;;;5026527;28;20378;-54
2022/08/09 03:36:27;;;;;;;;;;;;;;;;;;5056701;28;19916;-48
2022/08/09 03:38:52;;;;;;;;;;;;;;;;;;5054486;28;19920;-54
2022/08/09 03:41:17;;;;;;;;;;;;;;;;;;5053459;28;19916;-51
2022/08/09 03:43:42;;;;;;;;;;;;;;;;;;5054530;28;19921;-55
2022/08/09 03:46:08;;;;;;;;;;;;;;;;;;5040878;28;19963;-57
2022/08/09 03:48:33;;;;;;;;;;;;;;;;;;5052052;28;19912;-54
2022/08/09 03:50:58;;;;;;;;;;;;;;;;;;5054586;28;19960;-55
2022/08/09 03:53:23;;;;;;;;;;;;;;;;;;5053319;28;20444;-51
2022/08/09 03:55:48;;;;;;;;;;;;;;;;;;5053617;28;19971;-56
2022/08/09 03:58:14;;;;;;;;;;;;;;;;;;5050996;28;19920;-57
2022/08/09 04:00:39;;;;;;;;;;;;;;;;;;5052902;28;19923;-52
2022/08/09 04:03:04;;;;;;;;;;;;;;;;;;5050972;28;20085;-53
2022/08/09 04:05:29;;;;;;;;;;;;;;;;;;5051941;28;20043;-55
2022/08/09 04:07:55;;;;;;;;;;;;;;;;;;5051885;28;19974;-55
2022/08/09 04:10:21;;;;;;;;;;;;;;;;;;5052815;28;20022;-57
2022/08/09 04:12:46;;;;;;;;;;;;;;;;;;5052623;28;19974;-54
2022/08/09 04:15:12;;;;;;;;;;;;;;;;;;5054481;28;19917;-56
2022/08/09 04:17:37;;;;;;;;;;;;;;;;;;5054551;28;20385;-55
2022/08/09 04:20:02;;;;;;;;;;;;;;;;;;5039089;28;19924;-56
2022/08/09 04:22:27;;;;;;;;;;;;;;;;;;5054913;28;19967;-54
2022/08/09 04:24:53;;;;;;;;;;;;;;;;;;5054099;28;19925;-56
2022/08/09 04:27:18;;;;;;;;;;;;;;;;;;5049994;28;20031;-55
2022/08/09 04:29:43;;;;;;;;;;;;;;;;;;5054203;28;19985;-54
2022/08/09 04:32:08;;;;;;;;;;;;;;;;;;5053762;28;20041;-56
2022/08/09 04:34:34;;;;;;;;;;;;;;;;;;5053186;28;19924;-56
2022/08/09 04:36:59;;;;;;;;;;;;;;;;;;5052339;28;20421;-56
2022/08/09 04:39:24;;;;;;;;;;;;;;;;;;5054960;28;19959;-52
2022/08/09 04:41:49;;;;;;;;;;;;;;;;;;5052136;28;19978;-55
2022/08/09 04:44:15;;;;;;;;;;;;;;;;;;5053556;28;19946;-53
2022/08/09 04:46:40;;;;;;;;;;;;;;;;;;5052785;28;19916;-57
2022/08/09 04:49:05;;;;;;;;;;;;;;;;;;5053041;28;19917;-56
2022/08/09 04:51:30;;;;;;;;;;;;;;;;;;5050164;28;19943;-56
2022/08/09 04:53:56;;;;;;;;;;;;;;;;;;5051785;28;19921;-54
2022/08/09 04:56:21;;;;;;;;;;;;;;;;;;5054901;28;20371;-56
2022/08/09 04:58:46;;;;;;;;;;;;;;;;;;5054662;28;19919;-54
2022/08/09 05:01:11;;;;;;;;;;;;;;;;;;5054294;28;19917;-56
2022/08/09 05:03:36;;;;;;;;;;;;;;;;;;5050879;28;20297;-54
2022/08/09 05:06:02;;;;;;;;;;;;;;;;;;5050462;28;19948;-55
2022/08/09 05:08:27;;;;;;;;;;;;;;;;;;5051068;28;19924;-53
2022/08/09 05:10:52;;;;;;;;;;;;;;;;;;5050985;28;19925;-55
2022/08/09 05:13:17;;;;;;;;;;;;;;;;;;5034985;28;19921;-54
2022/08/09 05:15:42;;;;;;;;;;;;;;;;;;5053874;28;19927;-53
2022/08/09 05:18:08;;;;;;;;;;;;;;;;;;5051343;28;20016;-58
2022/08/09 05:20:33;;;;;;;;;;;;;;;;;;5055120;28;20430;-55
2022/08/09 05:22:58;;;;;;;;;;;;;;;;;;5041983;28;20353;-55
2022/08/09 05:25:24;;;;;;;;;;;;;;;;;;5053846;28;20043;-56
2022/08/09 05:27:49;;;;;;;;;;;;;;;;;;5035816;28;19917;-55
2022/08/09 05:30:14;;;;;;;;;;;;;;;;;;5050550;28;19955;-56
2022/08/09 05:32:40;;;;;;;;;;;;;;;;;;5051466;28;19921;-52
2022/08/09 05:35:05;;;;;;;;;;;;;;;;;;5052298;28;19913;-55
2022/08/09 05:37:30;;;;;;;;;;;;;;;;;;5049471;28;19917;-58
2022/08/09 05:39:57;;;;;;;;;;;;;;;;;;5052545;28;20421;-56
2022/08/09 05:42:22;;;;;;;;;;;;;;;;;;5053765;28;20438;-56
2022/08/09 05:44:48;;;;;;;;;;;;;;;;;;5036910;28;19955;-56
2022/08/09 05:47:13;;;;;;;;;;;;;;;;;;5054563;28;19923;-57
2022/08/09 05:49:38;;;;;;;;;;;;;;;;;;5049439;28;19920;-57
2022/08/09 05:52:04;;;;;;;;;;;;;;;;;;5050488;28;19928;-56
2022/08/09 05:54:29;;;;;;;;;;;;;;;;;;5051294;28;20364;-58
2022/08/09 05:56:54;;;;;;;;;;;;;;;;;;5049747;28;20361;-55
2022/08/09 05:59:20;;;;;;;;;;;;;;;;;;5048888;28;19916;-55
2022/08/09 06:01:45;;;;;;;;;;;;;;;;;;5052848;28;19963;-57
2022/08/09 06:04:11;;;;;;;;;;;;;;;;;;5037044;28;20277;-58
2022/08/09 06:06:36;;;;;;;;;;;;;;;;;;5021541;28;19963;-58
2022/08/09 06:09:01;;;;;;;;;;;;;;;;;;5003856;28;19956;-57
2022/08/09 06:11:26;;;;;;;;;;;;;;;;;;5035774;28;20390;-56
2022/08/09 06:13:51;;;;;;;;;;;;;;;;;;5038164;28;19924;-54
2022/08/09 06:16:17;;;;;;;;;;;;;;;;;;5049559;28;20347;-55
2022/08/09 06:18:42;;;;;;;;;;;;;;;;;;5033111;28;20658;-56
2022/08/09 06:21:07;;;;;;;;;;;;;;;;;;5052749;28;19924;-53
2022/08/09 06:23:32;;;;;;;;;;;;;;;;;;5050043;28;20031;-57
2022/08/09 06:25:58;;;;;;;;;;;;;;;;;;5048531;28;19950;-53
2022/08/09 06:28:23;;;;;;;;;;;;;;;;;;5049608;28;19967;-56
2022/08/09 06:30:48;;;;;;;;;;;;;;;;;;5050708;28;20012;-57
2022/08/09 06:33:13;;;;;;;;;;;;;;;;;;5048577;28;19920;-56
2022/08/09 06:35:39;;;;;;;;;;;;;;;;;;5049432;28;19924;-53
2022/08/09 06:38:04;;;;;;;;;;;;;;;;;;5048158;28;19920;-57
2022/08/09 06:40:29;;;;;;;;;;;;;;;;;;5050724;28;19917;-57
2022/08/09 06:42:54;;;;;;;;;;;;;;;;;;5050992;28;19928;-58
2022/08/09 06:45:19;;;;;;;;;;;;;;;;;;5047689;28;19917;-57
2022/08/09 06:47:45;;;;;;;;;;;;;;;;;;5048937;28;19983;-57
2022/08/09 06:50:10;;;;;;;;;;;;;;;;;;5053532;28;19920;-57
2022/08/09 06:52:35;;;;;;;;;;;;;;;;;;5048953;28;19921;-58
2022/08/09 06:55:01;;;;;;;;;;;;;;;;;;5049247;28;19924;-55
2022/08/09 06:57:26;;;;;;;;;;;;;;;;;;5051529;28;19966;-57
2022/08/09 06:59:52;;;;;;;;;;;;;;;;;;5051859;28;19920;-55
2022/08/09 07:02:17;;;;;;;;;;;;;;;;;;5053085;28;19920;-58
2022/08/09 07:04:43;;;;;;;;;;;;;;;;;;5052025;28;19921;-56
2022/08/09 07:07:08;;;;;;;;;;;;;;;;;;5050794;28;20237;-55
2022/08/09 07:09:33;;;;;;;;;;;;;;;;;;5050961;28;19920;-58
2022/08/09 07:11:58;;;;;;;;;;;;;;;;;;5051951;28;19981;-58
2022/08/09 07:14:23;;;;;;;;;;;;;;;;;;5033975;28;20040;-57
2022/08/09 07:16:49;;;;;;;;;;;;;;;;;;5051857;28;19961;-59
2022/08/09 07:19:14;;;;;;;;;;;;;;;;;;5051344;28;20061;-56
2022/08/09 07:21:39;;;;;;;;;;;;;;;;;;5050299;28;19917;-55
2022/08/09 07:24:05;;;;;;;;;;;;;;;;;;5039479;28;19920;-56
2022/08/09 07:26:30;;;;;;;;;;;;;;;;;;5049916;28;20349;-56
2022/08/09 07:28:55;;;;;;;;;;;;;;;;;;5052327;28;20324;-56
2022/08/09 07:31:20;;;;;;;;;;;;;;;;;;5053953;28;19947;-57
2022/08/09 07:33:45;;;;;;;;;;;;;;;;;;5051267;28;20657;-57
2022/08/09 07:36:12;;;;;;;;;;;;;;;;;;5050565;28;20187;-55
2022/08/09 07:38:37;;;;;;;;;;;;;;;;;;5037231;28;19983;-57
2022/08/09 07:41:02;;;;;;;;;;;;;;;;;;5050024;28;20535;-56
2022/08/09 07:43:27;;;;;;;;;;;;;;;;;;5052170;28;19920;-58
2022/08/09 07:45:53;;;;;;;;;;;;;;;;;;5050501;28;20289;-54
2022/08/09 07:48:18;;;;;;;;;;;;;;;;;;5037437;28;19916;-55
2022/08/09 07:50:43;;;;;;;;;;;;;;;;;;5050985;28;19932;-56
2022/08/09 07:53:08;;;;;;;;;;;;;;;;;;5051714;28;20424;-57
2022/08/09 07:55:33;;;;;;;;;;;;;;;;;;5038661;28;19920;-59
2022/08/09 07:57:59;;;;;;;;;;;;;;;;;;5049870;28;19916;-58
2022/08/09 08:00:24;;;;;;;;;;;;;;;;;;5048160;28;20005;-57
2022/08/09 08:02:49;;;;;;;;;;;;;;;;;;5052670;28;19923;-57
2022/08/09 08:05:15;;;;;;;;;;;;;;;;;;5051581;28;20282;-58
2022/08/09 08:07:40;;;;;;;;;;;;;;;;;;5050117;28;19990;-58
2022/08/09 08:10:05;;;;;;;;;;;;;;;;;;5052288;28;19927;-56
2022/08/09 08:12:30;;;;;;;;;;;;;;;;;;5051468;28;19920;-57
2022/08/09 08:14:56;;;;;;;;;;;;;;;;;;5050091;28;19913;-57
2022/08/09 08:17:21;;;;;;;;;;;;;;;;;;5052965;28;19917;-56
2022/08/09 08:19:46;;;;;;;;;;;;;;;;;;5051004;28;19913;-57
2022/08/09 08:22:11;;;;;;;;;;;;;;;;;;5051703;28;19917;-57
2022/08/09 08:24:36;;;;;;;;;;;;;;;;;;5051745;28;19927;-57
2022/08/09 08:27:02;;;;;;;;;;;;;;;;;;5049484;28;19955;-58
2022/08/09 08:29:27;;;;;;;;;;;;;;;;;;5050767;28;20305;-58
2022/08/09 08:31:52;;;;;;;;;;;;;;;;;;5051028;28;20436;-58
2022/08/09 08:34:17;;;;;;;;;;;;;;;;;;5050486;28;19917;-57
2022/08/09 08:36:42;;;;;;;;;;;;;;;;;;5051350;28;19915;-57
2022/08/09 08:39:08;;;;;;;;;;;;;;;;;;5050838;28;19916;-58
2022/08/09 08:41:34;;;;;;;;;;;;;;;;;;5046416;28;19973;-57
2022/08/09 08:43:59;;;;;;;;;;;;;;;;;;5049847;28;20011;-57
2022/08/09 08:46:24;;;;;;;;;;;;;;;;;;5047847;28;19916;-58
2022/08/09 08:48:50;;;;;;;;;;;;;;;;;;5047396;28;20335;-56
2022/08/09 08:51:15;;;;;;;;;;;;;;;;;;5046842;28;19970;-59
2022/08/09 08:53:40;;;;;;;;;;;;;;;;;;5051376;28;19921;-57
2022/08/09 08:56:05;;;;;;;;;;;;;;;;;;5050735;28;19916;-58
2022/08/09 08:58:31;;;;;;;;;;;;;;;;;;5052300;28;20003;-57
2022/08/09 09:00:56;;;;;;;;;;;;;;;;;;5049443;28;20003;-56
2022/08/09 09:03:22;;;;;;;;;;;;;;;;;;5049402;28;19968;-57
2022/08/09 09:05:47;;;;;;;;;;;;;;;;;;5034066;28;20419;-58
2022/08/09 09:08:12;;;;;;;;;;;;;;;;;;5047474;28;20343;-58
2022/08/09 09:10:38;;;;;;;;;;;;;;;;;;5037917;28;20047;-54
2022/08/09 09:13:03;;;;;;;;;;;;;;;;;;5049933;28;19932;-57
2022/08/09 09:15:28;;;;;;;;;;;;;;;;;;5049570;28;19920;-57
2022/08/09 09:17:53;;;;;;;;;;;;;;;;;;5050861;28;19996;-55
2022/08/09 09:20:19;;;;;;;;;;;;;;;;;;5049929;28;19927;-57
2022/08/09 09:22:44;;;;;;;;;;;;;;;;;;5032842;28;20016;-56
2022/08/09 09:25:09;;;;;;;;;;;;;;;;;;5053948;28;19956;-57
2022/08/09 09:27:34;;;;;;;;;;;;;;;;;;5039872;28;20369;-57
2022/08/09 09:29:59;;;;;;;;;;;;;;;;;;5051751;28;20373;-57
2022/08/09 09:32:24;;;;;;;;;;;;;;;;;;5049329;28;20365;-57
2022/08/09 09:34:50;;;;;;;;;;;;;;;;;;5049605;28;19928;-57
2022/08/09 09:37:15;;;;;;;;;;;;;;;;;;5049391;28;19971;-57
2022/08/09 09:39:40;;;;;;;;;;;;;;;;;;5050901;28;19917;-57
2022/08/09 09:42:05;;;;;;;;;;;;;;;;;;5050608;28;20426;-57
2022/08/09 09:44:33;;;;;;;;;;;;;;;;;;5050130;28;19955;-58
2022/08/09 09:46:59;;;;;;;;;;;;;;;;;;5050771;28;20007;-57
2022/08/09 09:49:24;;;;;;;;;;;;;;;;;;5046883;28;20250;-58
2022/08/09 09:51:49;;;;;;;;;;;;;;;;;;5051849;28;20270;-57
2022/08/09 09:54:16;;;;;;;;;;;;;;;;;;5048985;28;19924;-58
2022/08/09 09:56:41;;;;;;;;;;;;;;;;;;5049306;28;19978;-58
2022/08/09 09:59:06;;;;;;;;;;;;;;;;;;5049330;28;19916;-58
2022/08/09 10:01:31;;;;;;;;;;;;;;;;;;5031301;28;20118;-57
2022/08/09 10:03:57;;;;;;;;;;;;;;;;;;5047208;28;19916;-57
2022/08/09 10:06:22;;;;;;;;;;;;;;;;;;5048812;28;19912;-58
2022/08/09 10:08:47;;;;;;;;;;;;;;;;;;5047121;28;19916;-57
2022/08/09 10:11:12;;;;;;;;;;;;;;;;;;5031907;28;20062;-56
2022/08/09 10:13:38;;;;;;;;;;;;;;;;;;5044023;28;19921;-58
2022/08/09 10:16:03;;;;;;;;;;;;;;;;;;5045761;28;19916;-57
2022/08/09 10:18:28;;;;;;;;;;;;;;;;;;5049592;28;19943;-57
2022/08/09 10:20:53;;;;;;;;;;;;;;;;;;5048662;28;19949;-58
2022/08/09 10:23:19;;;;;;;;;;;;;;;;;;5051212;28;19921;-58
2022/08/09 10:25:44;;;;;;;;;;;;;;;;;;5049654;28;19944;-57
2022/08/09 10:28:09;;;;;;;;;;;;;;;;;;5036278;28;19924;-58
2022/08/09 10:30:34;;;;;;;;;;;;;;;;;;5049388;28;19946;-58
2022/08/09 10:33:00;;;;;;;;;;;;;;;;;;5051579;28;19928;-58
2022/08/09 10:35:25;;;;;;;;;;;;;;;;;;5050216;28;20006;-58
2022/08/09 10:37:50;;;;;;;;;;;;;;;;;;5050609;28;19982;-58
2022/08/09 10:40:15;;;;;;;;;;;;;;;;;;5043453;28;20386;-57
2022/08/09 10:42:40;;;;;;;;;;;;;;;;;;5037834;28;19916;-58
2022/08/09 10:45:06;;;;;;;;;;;;;;;;;;5050011;28;19917;-57
2022/08/09 10:47:31;;;;;;;;;;;;;;;;;;5052741;28;20278;-58
2022/08/09 10:49:56;;;;;;;;;;;;;;;;;;5052624;28;20027;-57
2022/08/09 10:52:24;;;;;;;;;;;;;;;;;;5052491;28;19921;-58
2022/08/09 10:54:52;;;;;;;;;;;;;;;;;;5052293;28;19982;-57
2022/08/09 10:57:17;;;;;;;;;;;;;;;;;;5050357;28;20442;-59
2022/08/09 10:59:44;;;;;;;;;;;;;;;;;;5048677;28;19921;-58
2022/08/09 11:02:09;;;;;;;;;;;;;;;;;;5050828;28;20278;-57
2022/08/09 11:04:35;;;;;;;;;;;;;;;;;;5051821;28;19923;-57
2022/08/09 11:07:01;;;;;;;;;;;;;;;;;;5050903;28;19923;-58
2022/08/09 11:09:26;;;;;;;;;;;;;;;;;;5051940;28;19924;-57
2022/08/09 11:11:51;;;;;;;;;;;;;;;;;;5052412;28;20390;-58
2022/08/09 11:14:16;;;;;;;;;;;;;;;;;;5040325;28;20003;-57
2022/08/09 11:16:41;;;;;;;;;;;;;;;;;;5050496;28;19952;-58
2022/08/09 11:19:07;;;;;;;;;;;;;;;;;;5048763;28;20296;-57
2022/08/09 11:21:32;;;;;;;;;;;;;;;;;;5051659;28;19909;-57
2022/08/09 11:23:57;;;;;;;;;;;;;;;;;;5052253;28;20293;-57
2022/08/09 11:26:22;;;;;;;;;;;;;;;;;;5051052;28;19928;-57
2022/08/09 11:28:47;;;;;;;;;;;;;;;;;;5049932;28;19917;-58
2022/08/09 11:31:12;;;;;;;;;;;;;;;;;;5035871;28;20314;-58
2022/08/09 11:33:38;;;;;;;;;;;;;;;;;;5051723;28;20517;-59
2022/08/09 11:36:03;;;;;;;;;;;;;;;;;;5050915;28;19948;-58
2022/08/09 11:38:28;;;;;;;;;;;;;;;;;;5051317;28;19917;-58
2022/08/09 11:40:53;;;;;;;;;;;;;;;;;;5051488;28;19920;-59
2022/08/09 11:43:19;;;;;;;;;;;;;;;;;;5050278;28;19916;-59
2022/08/09 11:45:44;;;;;;;;;;;;;;;;;;5033511;28;19920;-59
2022/08/09 11:48:09;;;;;;;;;;;;;;;;;;5049495;28;19920;-59
2022/08/09 11:50:34;;;;;;;;;;;;;;;;;;5050805;28;19924;-59
2022/08/09 11:52:59;;;;;;;;;;;;;;;;;;5051092;28;20265;-59
2022/08/09 11:55:25;;;;;;;;;;;;;;;;;;5050504;28;20233;-59
2022/08/09 11:57:50;;;;;;;;;;;;;;;;;;5050470;28;19920;-59
2022/08/09 12:00:15;;;;;;;;;;;;;;;;;;5046236;28;20002;-59
2022/08/09 12:02:41;;;;;;;;;;;;;;;;;;5042209;28;19917;-59
2022/08/09 12:05:06;;;;;;;;;;;;;;;;;;5051732;28;20001;-60
2022/08/09 12:07:31;;;;;;;;;;;;;;;;;;5050455;28;20369;-59
2022/08/09 12:09:56;;;;;;;;;;;;;;;;;;5049196;28;20277;-59
2022/08/09 12:12:21;;;;;;;;;;;;;;;;;;5051331;28;20389;-58
2022/08/09 12:14:47;;;;;;;;;;;;;;;;;;5052262;28;20012;-59
2022/08/09 12:17:12;;;;;;;;;;;;;;;;;;5052424;28;19981;-60
2022/08/09 12:19:37;;;;;;;;;;;;;;;;;;5050893;28;20824;-59
2022/08/09 12:22:02;;;;;;;;;;;;;;;;;;5050783;28;19917;-59
2022/08/09 12:24:28;;;;;;;;;;;;;;;;;;5051853;28;20003;-59
2022/08/09 12:26:57;;;;;;;;;;;;;;;;;;5050645;28;19916;-59
2022/08/09 12:29:26;;;;;;;;;;;;;;;;;;5050651;28;20040;-59
2022/08/09 12:31:51;;;;;;;;;;;;;;;;;;5037617;28;19931;-60
2022/08/09 12:34:16;;;;;;;;;;;;;;;;;;5052441;28;19920;-59
2022/08/09 12:36:41;;;;;;;;;;;;;;;;;;5050274;28;20368;-59
2022/08/09 12:39:07;;;;;;;;;;;;;;;;;;5049420;28;20033;-59
2022/08/09 12:41:32;;;;;;;;;;;;;;;;;;5050678;28;20356;-59
2022/08/09 12:43:57;;;;;;;;;;;;;;;;;;5051424;28;20362;-59
2022/08/09 12:46:22;;;;;;;;;;;;;;;;;;5049556;28;19923;-59
2022/08/09 12:48:48;;;;;;;;;;;;;;;;;;5052365;28;19916;-58
2022/08/09 12:51:13;;;;;;;;;;;;;;;;;;5033729;28;19921;-58
2022/08/09 12:53:38;;;;;;;;;;;;;;;;;;5047747;28;20424;-57
2022/08/09 12:56:03;;;;;;;;;;;;;;;;;;5049531;28;20142;-59
2022/08/09 12:58:28;;;;;;;;;;;;;;;;;;5051033;28;19927;-58
2022/08/09 13:00:54;;;;;;;;;;;;;;;;;;5049397;28;20142;-59
2022/08/09 13:03:19;;;;;;;;;;;;;;;;;;5038446;28;19969;-59
2022/08/09 13:05:44;;;;;;;;;;;;;;;;;;5052033;28;20008;-58
2022/08/09 13:08:16;;;;;;;;;;;;;;;;;;5052440;28;19928;-58
2022/08/09 13:10:41;;;;;;;;;;;;;;;;;;5042961;28;19927;-58
2022/08/09 13:13:06;;;;;;;;;;;;;;;;;;5051437;28;19917;-60
2022/08/09 13:15:31;;;;;;;;;;;;;;;;;;5052893;28;19923;-58
2022/08/09 13:17:57;;;;;;;;;;;;;;;;;;5053151;28;19916;-58
2022/08/09 13:20:22;;;;;;;;;;;;;;;;;;5051091;28;20357;-59
2022/08/09 13:22:48;;;;;;;;;;;;;;;;;;5050616;28;19939;-58
2022/08/09 13:25:13;;;;;;;;;;;;;;;;;;5052982;28;19917;-58
2022/08/09 13:27:38;;;;;;;;;;;;;;;;;;5051619;28;20004;-59
2022/08/09 13:30:03;;;;;;;;;;;;;;;;;;5050020;28;19913;-58
2022/08/09 13:32:28;;;;;;;;;;;;;;;;;;5049009;28;19928;-58
2022/08/09 13:34:54;;;;;;;;;;;;;;;;;;5035177;28;19928;-58
2022/08/09 13:37:19;;;;;;;;;;;;;;;;;;5050147;28;20557;-58
2022/08/09 13:39:45;;;;;;;;;;;;;;;;;;5051313;28;19979;-58
2022/08/09 13:42:10;;;;;;;;;;;;;;;;;;5050460;28;20376;-58
2022/08/09 13:44:35;;;;;;;;;;;;;;;;;;5051856;28;19974;-58
2022/08/09 13:47:01;;;;;;;;;;;;;;;;;;5050299;28;20035;-58
2022/08/09 13:49:26;;;;;;;;;;;;;;;;;;5036804;28;20418;-58
2022/08/09 13:51:51;;;;;;;;;;;;;;;;;;5049999;28;19912;-59
2022/08/09 13:54:16;;;;;;;;;;;;;;;;;;5049812;28;19913;-59
2022/08/09 13:56:41;;;;;;;;;;;;;;;;;;5050059;28;20320;-58
2022/08/09 13:59:07;;;;;;;;;;;;;;;;;;5049258;28;19999;-58
2022/08/09 14:01:32;;;;;;;;;;;;;;;;;;5036741;28;20549;-58
2022/08/09 14:03:57;;;;;;;;;;;;;;;;;;5050336;28;20672;-58
2022/08/09 14:06:22;;;;;;;;;;;;;;;;;;5039221;28;19916;-58
2022/08/09 14:08:47;;;;;;;;;;;;;;;;;;5058217;28;20359;-58
2022/08/09 14:11:13;;;;;;;;;;;;;;;;;;5057815;28;20428;-58
2022/08/09 14:13:38;;;;;;;;;;;;;;;;;;5058187;28;19921;-58
2022/08/09 14:16:03;;;;;;;;;;;;;;;;;;5060963;28;19920;-59
2022/08/09 14:18:28;;;;;;;;;;;;;;;;;;5048352;28;19917;-58
2022/08/09 14:20:55;;;;;;;;;;;;;;;;;;5061763;28;20305;-58
2022/08/09 14:23:20;;;;;;;;;;;;;;;;;;5061661;28;19931;-58
2022/08/09 14:25:46;;;;;;;;;;;;;;;;;;5060620;28;19917;-58
2022/08/09 14:28:11;;;;;;;;;;;;;;;;;;5045203;28;19919;-58
2022/08/09 14:30:36;;;;;;;;;;;;;;;;;;5062591;28;20174;-58
2022/08/09 14:33:02;;;;;;;;;;;;;;;;;;5062009;28;19916;-58
2022/08/09 14:35:27;;;;;;;;;;;;;;;;;;5061246;28;19922;-58
2022/08/09 14:37:52;;;;;;;;;;;;;;;;;;5059821;28;19917;-58
2022/08/09 14:40:17;;;;;;;;;;;;;;;;;;5061871;28;19928;-58
2022/08/09 14:42:42;;;;;;;;;;;;;;;;;;5059322;28;19916;-61
2022/08/09 14:45:08;;;;;;;;;;;;;;;;;;5045778;28;20380;-59
2022/08/09 14:47:33;;;;;;;;;;;;;;;;;;5060071;28;20424;-59
2022/08/09 14:49:58;;;;;;;;;;;;;;;;;;5059490;28;19917;-58
2022/08/09 14:52:23;;;;;;;;;;;;;;;;;;5061053;28;19921;-59
2022/08/09 14:54:49;;;;;;;;;;;;;;;;;;5061765;28;19923;-58
2022/08/09 14:57:14;;;;;;;;;;;;;;;;;;5060548;28;19919;-60
2022/08/09 14:59:39;;;;;;;;;;;;;;;;;;5059485;28;19998;-59
2022/08/09 15:02:04;;;;;;;;;;;;;;;;;;5061723;28;19925;-58
2022/08/09 15:04:29;;;;;;;;;;;;;;;;;;5060853;28;19916;-58
2022/08/09 15:06:55;;;;;;;;;;;;;;;;;;5063667;28;19927;-58
2022/08/09 15:09:20;;;;;;;;;;;;;;;;;;5051160;28;19920;-59
2022/08/09 15:11:46;;;;;;;;;;;;;;;;;;5061699;28;19921;-59
2022/08/09 15:14:11;;;;;;;;;;;;;;;;;;5058901;28;20373;-58
2022/08/09 15:16:36;;;;;;;;;;;;;;;;;;5058836;28;19924;-58
2022/08/09 15:19:01;;;;;;;;;;;;;;;;;;5055626;28;19913;-60
2022/08/09 15:21:27;;;;;;;;;;;;;;;;;;5055158;28;19917;-59
2022/08/09 15:23:52;;;;;;;;;;;;;;;;;;5054351;28;19920;-59
2022/08/09 15:26:17;;;;;;;;;;;;;;;;;;5054652;28;19917;-59
2022/08/09 15:28:42;;;;;;;;;;;;;;;;;;5056532;28;19916;-59
2022/08/09 15:31:08;;;;;;;;;;;;;;;;;;5039750;28;19917;-59
2022/08/09 15:33:33;;;;;;;;;;;;;;;;;;5040331;28;19920;-59
2022/08/09 15:35:58;;;;;;;;;;;;;;;;;;5055258;28;20273;-61
2022/08/09 15:38:23;;;;;;;;;;;;;;;;;;5056860;28;19955;-59
2022/08/09 15:40:49;;;;;;;;;;;;;;;;;;5036817;28;20079;-60
2022/08/09 15:43:14;;;;;;;;;;;;;;;;;;5055854;28;20432;-58
2022/08/09 15:45:40;;;;;;;;;;;;;;;;;;5055859;28;19923;-58
2022/08/09 15:48:05;;;;;;;;;;;;;;;;;;5056347;28;19928;-58
2022/08/09 15:50:30;;;;;;;;;;;;;;;;;;5058544;28;20208;-59
2022/08/09 15:52:55;;;;;;;;;;;;;;;;;;5056644;28;20017;-59
2022/08/09 15:55:20;;;;;;;;;;;;;;;;;;5055048;28;19917;-59
2022/08/09 15:57:46;;;;;;;;;;;;;;;;;;5055572;28;20277;-59
2022/08/09 16:00:13;;;;;;;;;;;;;;;;;;5055282;28;19927;-59
2022/08/09 16:02:38;;;;;;;;;;;;;;;;;;5058899;28;19917;-58
2022/08/09 16:05:03;;;;;;;;;;;;;;;;;;5067568;28;20130;-59
2022/08/09 16:07:28;;;;;;;;;;;;;;;;;;5067822;28;19923;-59
2022/08/09 16:09:53;;;;;;;;;;;;;;;;;;5068362;28;19930;-58
2022/08/09 16:12:19;;;;;;;;;;;;;;;;;;5070030;28;20248;-58
2022/08/09 16:14:44;;;;;;;;;;;;;;;;;;5064282;28;19948;-58
2022/08/09 16:17:09;;;;;;;;;;;;;;;;;;5068055;28;20214;-58
2022/08/09 16:19:34;;;;;;;;;;;;;;;;;;5065849;28;19920;-60
2022/08/09 16:22:00;;;;;;;;;;;;;;;;;;5061020;28;19924;-60
2022/08/09 16:24:25;;;;;;;;;;;;;;;;;;5062688;28;20228;-58
2022/08/09 16:26:50;;;;;;;;;;;;;;;;;;5052680;28;19923;-58
2022/08/09 16:29:15;;;;;;;;;;;;;;;;;;5064899;28;19950;-59
2022/08/09 16:31:40;;;;;;;;;;;;;;;;;;5063817;28;19916;-58
2022/08/09 16:34:06;;;;;;;;;;;;;;;;;;5057513;28;19946;-58